Time;durP1;ratioP1;P1;durP2;ratioP2;P2;SDS_P1;SDS_P2;PMS_P1;PMS_P2;Temp;Humidity;BMP_temperature;BMP_pressure;BME280_temperature;BME280_humidity;BME280_pressure;Samples;Min_cycle;Max_cycle;Signal;HPM_P1;HPM_P2
2021/08/22 00:01:52;;;;;;;13.03;10.13;;;;;;;19.71;100.00;100124.23;1684018;83;21101;-62
2021/08/22 00:04:20;;;;;;;12.83;9.23;;;;;;;19.57;100.00;100126.41;1684800;83;21187;-62
2021/08/22 00:06:46;;;;;;;12.90;9.80;;;;;;;19.58;100.00;100130.11;1683979;83;21043;-61
2021/08/22 00:09:13;;;;;;;12.40;9.90;;;;;;;19.55;100.00;100132.47;1652693;85;20924;-62
2021/08/22 00:11:41;;;;;;;12.13;9.27;;;;;;;19.53;100.00;100136.66;1650437;85;21018;-61
2021/08/22 00:14:08;;;;;;;13.20;10.07;;;;;;;19.57;100.00;100135.66;1652638;86;21137;-61
2021/08/22 00:16:36;;;;;;;13.43;10.20;;;;;;;19.53;100.00;100139.31;1658316;85;21031;-62
2021/08/22 00:19:03;;;;;;;11.90;10.37;;;;;;;19.43;100.00;100136.03;1656155;85;20991;-62
2021/08/22 00:21:29;;;;;;;10.83;9.73;;;;;;;19.44;100.00;100140.27;1645829;86;20949;-57
2021/08/22 00:23:57;;;;;;;12.67;9.30;;;;;;;19.40;100.00;100139.68;1649172;86;20984;-62
2021/08/22 00:26:23;;;;;;;10.47;9.10;;;;;;;19.36;100.00;100150.47;1628876;86;21457;-62
2021/08/22 00:28:50;;;;;;;13.27;9.23;;;;;;;19.31;100.00;100143.23;1624357;87;22189;-61
2021/08/22 00:31:17;;;;;;;10.33;9.33;;;;;;;19.30;100.00;100141.65;1627528;87;21492;-61
2021/08/22 00:33:44;;;;;;;11.87;10.40;;;;;;;19.30;100.00;100145.61;1625649;86;21067;-57
2021/08/22 00:36:10;;;;;;;12.67;9.50;;;;;;;19.39;100.00;100143.34;1626825;86;21115;-61
2021/08/22 00:38:37;;;;;;;13.63;9.20;;;;;;;19.40;100.00;100144.44;1627432;87;21092;-62
2021/08/22 00:41:03;;;;;;;11.73;10.27;;;;;;;19.40;100.00;100144.44;1626044;86;21165;-62
2021/08/22 00:43:31;;;;;;;11.10;8.73;;;;;;;19.45;100.00;100143.70;1626631;87;21588;-60
2021/08/22 00:45:58;;;;;;;10.90;8.70;;;;;;;19.27;100.00;100155.34;1626728;87;21102;-58
2021/08/22 00:48:28;;;;;;;10.97;8.97;;;;;;;19.28;100.00;100158.28;1627283;87;21545;-62
2021/08/22 00:50:54;;;;;;;11.47;9.73;;;;;;;19.23;100.00;100158.72;1627851;86;21136;-62
2021/08/22 00:53:21;;;;;;;13.80;9.70;;;;;;;19.13;100.00;100164.14;1626563;87;21165;-62
2021/08/22 00:55:49;;;;;;;11.70;10.43;;;;;;;19.34;100.00;100164.43;1626572;86;21462;-62
2021/08/22 00:58:16;;;;;;;13.83;9.83;;;;;;;19.25;100.00;100159.29;1625914;87;21024;-58
2021/08/22 01:00:42;;;;;;;11.67;8.50;;;;;;;19.20;100.00;100163.95;1629803;86;21830;-62
2021/08/22 01:03:26;;;;;;;11.60;9.30;;;;;;;19.23;100.00;100167.97;1627003;86;21108;-60
2021/08/22 01:06:23;;;;;;;12.43;9.97;;;;;;;19.29;100.00;100169.66;1626578;87;21525;-57
2021/08/22 01:09:11;;;;;;;11.70;9.90;;;;;;;19.30;100.00;100168.08;1625692;87;20956;-62
2021/08/22 01:11:37;;;;;;;12.53;10.10;;;;;;;19.13;100.00;100172.07;1625379;87;21020;-62
2021/08/22 01:14:09;;;;;;;11.93;9.23;;;;;;;19.14;100.00;100167.58;1627077;87;21060;-62
2021/08/22 01:16:42;;;;;;;14.77;10.50;;;;;;;18.97;100.00;100164.93;1628378;86;20974;-61
2021/08/22 01:19:26;;;;;;;13.10;9.97;;;;;;;18.87;100.00;100164.79;1625860;87;21176;-57
2021/08/22 01:21:52;;;;;;;10.67;9.53;;;;;;;18.85;100.00;100171.61;1626539;87;21541;-62
2021/08/22 01:24:20;;;;;;;11.23;9.33;;;;;;;18.75;100.00;100178.04;1626660;87;21009;-61
2021/08/22 01:26:47;;;;;;;12.03;9.77;;;;;;;18.63;100.00;100179.39;1627225;86;21816;-61
2021/08/22 01:29:14;;;;;;;10.13;8.83;;;;;;;18.62;100.00;100176.48;1626330;86;21529;-60
2021/08/22 01:31:47;;;;;;;9.73;8.73;;;;;;;18.61;100.00;100181.48;1626511;86;22440;-62
2021/08/22 01:34:14;;;;;;;14.00;10.27;;;;;;;18.74;100.00;100181.73;1625599;87;21033;-62
2021/08/22 01:36:41;;;;;;;11.83;9.77;;;;;;;18.67;100.00;100187.13;1624997;87;21142;-62
2021/08/22 01:39:08;;;;;;;10.20;8.43;;;;;;;18.74;100.00;100190.17;1626361;87;21054;-60
2021/08/22 01:41:35;;;;;;;12.60;8.93;;;;;;;18.66;100.00;100185.53;1628080;87;21387;-62
2021/08/22 01:44:02;;;;;;;9.03;7.83;;;;;;;18.62;100.00;100188.89;1628549;86;21179;-60
2021/08/22 01:46:32;;;;;;;10.93;8.57;;;;;;;18.59;100.00;100190.16;1627606;87;21115;-59
2021/08/22 01:49:00;;;;;;;10.47;8.93;;;;;;;18.66;100.00;100191.33;1629544;86;21621;-58
2021/08/22 01:51:29;;;;;;;12.87;10.23;;;;;;;18.69;100.00;100195.62;1627467;87;21506;-62
2021/08/22 01:53:59;;;;;;;11.55;9.23;;;;;;;18.68;100.00;100191.91;1625625;86;21086;-60
2021/08/22 01:56:30;;;;;;;12.30;8.97;;;;;;;18.66;100.00;100197.94;1627279;87;23176;-63
2021/08/22 01:58:57;;;;;;;13.08;9.23;;;;;;;18.57;100.00;100196.73;1626582;87;20940;-62
2021/08/22 02:01:25;;;;;;;11.00;9.07;;;;;;;18.53;100.00;100200.36;1627216;87;21036;-62
2021/08/22 02:03:56;;;;;;;13.00;9.07;;;;;;;18.50;100.00;100202.14;1627365;87;21115;-62
2021/08/22 02:06:49;;;;;;;11.43;9.47;;;;;;;18.50;100.00;100200.83;1625966;87;21549;-62
2021/08/22 02:09:20;;;;;;;13.90;8.90;;;;;;;18.43;100.00;100202.28;1627103;86;22436;-62
2021/08/22 02:12:00;;;;;;;12.67;8.87;;;;;;;18.51;100.00;100203.73;1622280;86;21601;-61
2021/08/22 02:14:26;;;;;;;12.67;9.33;;;;;;;18.46;100.00;100211.58;1628960;86;21114;-62
2021/08/22 02:16:55;;;;;;;11.43;9.03;;;;;;;18.47;100.00;100216.60;1626800;87;21623;-59
2021/08/22 02:19:24;;;;;;;9.97;8.53;;;;;;;18.38;100.00;100223.31;1627761;86;21103;-62
2021/08/22 02:21:53;;;;;;;9.87;8.87;;;;;;;18.41;100.00;100224.66;1604956;87;21149;-63
2021/08/22 02:24:19;;;;;;;12.77;9.93;;;;;;;18.30;100.00;100231.59;1627711;87;21385;-62
2021/08/22 02:26:46;;;;;;;12.30;9.73;;;;;;;18.28;100.00;100231.02;1626222;87;21056;-58
2021/08/22 02:29:12;;;;;;;10.63;9.53;;;;;;;18.28;100.00;100229.70;1603249;87;21630;-62
2021/08/22 02:31:39;;;;;;;11.70;10.03;;;;;;;18.33;100.00;100228.47;1626345;87;21677;-62
2021/08/22 02:34:05;;;;;;;12.33;10.90;;;;;;;18.43;100.00;100233.16;1631242;86;21235;-62
2021/08/22 02:36:33;;;;;;;13.07;11.40;;;;;;;18.45;100.00;100231.09;1629045;86;21015;-64
2021/08/22 02:38:59;;;;;;;11.90;10.70;;;;;;;18.35;100.00;100228.25;1628549;86;20997;-61
2021/08/22 02:41:26;;;;;;;11.60;10.27;;;;;;;18.28;100.00;100233.66;1626480;86;21409;-57
2021/08/22 02:43:53;;;;;;;11.90;9.57;;;;;;;18.31;100.00;100234.52;1626346;86;21123;-62
2021/08/22 02:46:20;;;;;;;11.77;9.93;;;;;;;18.40;100.00;100244.17;1627638;86;21193;-62
2021/08/22 02:48:47;;;;;;;12.63;10.37;;;;;;;18.21;100.00;100242.22;1627303;87;21023;-62
2021/08/22 02:51:13;;;;;;;11.50;10.03;;;;;;;18.23;100.00;100248.88;1626155;87;21088;-62
2021/08/22 02:53:41;;;;;;;13.40;10.07;;;;;;;18.23;100.00;100240.96;1626340;87;21181;-61
2021/08/22 02:56:07;;;;;;;11.93;8.93;;;;;;;18.25;100.00;100243.36;1626774;87;21082;-62
2021/08/22 02:58:34;;;;;;;10.83;9.57;;;;;;;18.40;100.00;100246.81;1628164;87;21184;-62
2021/08/22 03:01:01;;;;;;;12.30;9.97;;;;;;;18.50;100.00;100247.02;1638116;81;21505;-59
2021/08/22 03:03:27;;;;;;;12.23;9.60;;;;;;;18.60;100.00;100249.86;1708427;82;21059;-61
2021/08/22 03:05:53;;;;;;;11.47;9.97;;;;;;;18.55;100.00;100253.70;1687821;82;21084;-62
2021/08/22 03:08:23;;;;;;;14.97;9.97;;;;;;;18.69;100.00;100256.88;1647346;84;21960;-62
2021/08/22 03:10:50;;;;;;;10.77;9.40;;;;;;;18.86;100.00;100254.28;1714694;81;22194;-62
2021/08/22 03:13:17;;;;;;;10.00;8.07;;;;;;;18.99;100.00;100254.52;1709458;81;21083;-63
2021/08/22 03:15:43;;;;;;;14.40;9.23;;;;;;;19.25;100.00;100254.42;1699740;83;21178;-57
2021/08/22 03:18:09;;;;;;;11.27;9.20;;;;;;;19.37;100.00;100261.75;1701258;81;20952;-62
2021/08/22 03:20:37;;;;;;;10.80;8.80;;;;;;;19.40;100.00;100262.07;1699031;83;21399;-62
2021/08/22 03:23:04;;;;;;;12.70;9.83;;;;;;;19.44;100.00;100265.03;1698208;81;21221;-57
2021/08/22 03:25:31;;;;;;;10.80;8.37;;;;;;;19.43;100.00;100260.27;1719674;81;21082;-61
2021/08/22 03:27:58;;;;;;;12.47;9.47;;;;;;;19.45;100.00;100262.66;1695771;81;21149;-62
2021/08/22 03:30:26;;;;;;;11.03;8.70;;;;;;;19.55;100.00;100268.11;1698338;83;20940;-62
2021/08/22 03:32:53;;;;;;;11.20;8.77;;;;;;;19.67;100.00;100264.88;1699246;82;21055;-62
2021/08/22 03:35:19;;;;;;;10.63;7.87;;;;;;;19.70;100.00;100271.53;1702792;81;21148;-60
2021/08/22 03:37:46;;;;;;;9.10;8.07;;;;;;;19.73;100.00;100271.03;1698202;82;21059;-61
2021/08/22 03:40:13;;;;;;;10.17;8.53;;;;;;;19.91;100.00;100268.64;1700661;83;21039;-62
2021/08/22 03:42:40;;;;;;;10.63;8.20;;;;;;;20.07;100.00;100267.78;1694488;81;21071;-62
2021/08/22 03:45:07;;;;;;;10.57;8.63;;;;;;;20.10;100.00;100270.47;1680740;84;20905;-62
2021/08/22 03:47:34;;;;;;;10.23;7.70;;;;;;;20.21;100.00;100267.44;1680437;82;21177;-58
2021/08/22 03:50:00;;;;;;;9.97;8.03;;;;;;;20.38;100.00;100266.83;1671200;84;20968;-62
2021/08/22 03:52:27;;;;;;;9.60;8.40;;;;;;;20.44;100.00;100266.38;1672146;84;22403;-61
2021/08/22 03:54:53;;;;;;;9.47;8.50;;;;;;;20.53;100.00;100261.76;1683199;83;21052;-61
2021/08/22 03:57:20;;;;;;;10.20;8.50;;;;;;;20.74;100.00;100263.28;1683469;82;20963;-61
2021/08/22 03:59:46;;;;;;;9.97;8.17;;;;;;;20.85;100.00;100269.75;1685511;82;21127;-61
2021/08/22 04:02:12;;;;;;;10.60;8.23;;;;;;;21.10;100.00;100266.55;1709326;81;21598;-62
2021/08/22 04:04:41;;;;;;;9.90;8.53;;;;;;;21.53;100.00;100267.42;1698556;82;21075;-62
2021/08/22 04:07:08;;;;;;;9.73;8.43;;;;;;;22.15;100.00;100265.92;1704919;82;20972;-61
2021/08/22 04:09:34;;;;;;;13.20;9.00;;;;;;;23.00;100.00;100269.63;1703895;81;21060;-57
2021/08/22 04:12:01;;;;;;;9.83;8.83;;;;;;;24.09;100.00;100259.89;1714379;82;21159;-62
2021/08/22 04:14:28;;;;;;;8.77;7.87;;;;;;;25.19;100.00;100260.05;1704494;82;21134;-61
2021/08/22 04:16:55;;;;;;;13.80;7.93;;;;;;;26.17;100.00;100250.76;1704217;83;21568;-61
2021/08/22 04:19:22;;;;;;;8.88;7.55;;;;;;;27.02;100.00;100246.36;1710130;82;21024;-62
2021/08/22 04:21:48;;;;;;;10.05;7.80;;;;;;;27.49;100.00;100245.04;1709004;82;21085;-61
2021/08/22 04:24:15;;;;;;;12.63;7.50;;;;;;;27.83;100.00;100242.80;1713441;83;22505;-60
2021/08/22 04:26:41;;;;;;;7.58;6.87;;;;;;;28.35;100.00;100244.66;1703808;82;21477;-60
2021/08/22 04:29:09;;;;;;;8.23;7.00;;;;;;;29.42;100.00;100245.34;1697463;81;21501;-59
2021/08/22 04:31:35;;;;;;;9.98;7.20;;;;;;;29.42;100.00;100245.34;1692258;81;21098;-61
2021/08/22 04:34:02;;;;;;;7.55;6.75;;;;;;;30.25;100.00;100240.09;1700576;81;21051;-62
2021/08/22 04:36:29;;;;;;;7.10;6.40;;;;;;;31.17;100.00;100240.41;1707057;82;21139;-61
2021/08/22 04:38:55;;;;;;;6.15;5.30;;;;;;;31.83;100.00;100244.06;1709925;81;21071;-61
2021/08/22 04:41:23;;;;;;;5.08;4.30;;;;;;;32.55;84.49;100245.66;1712482;83;21024;-60
2021/08/22 04:43:51;;;;;;;5.90;4.70;;;;;;;32.98;68.75;100243.12;1700862;82;20980;-61
2021/08/22 04:46:20;;;;;;;7.92;4.80;;;;;;;33.40;64.92;100237.55;1714521;83;21512;-62
2021/08/22 04:48:48;;;;;;;7.87;5.15;;;;;;;33.84;60.69;100239.16;1711340;82;21570;-61
2021/08/22 04:51:15;;;;;;;5.80;4.75;;;;;;;34.48;56.73;100242.97;1704502;82;21104;-58
2021/08/22 04:53:42;;;;;;;7.65;5.50;;;;;;;34.95;52.08;100244.44;1705517;82;21036;-61
2021/08/22 04:56:08;;;;;;;5.25;4.75;;;;;;;35.50;48.38;100244.13;1705453;82;21573;-60
2021/08/22 04:58:36;;;;;;;5.97;4.45;;;;;;;35.98;45.67;100243.47;1709791;82;21049;-62
2021/08/22 05:01:02;;;;;;;5.45;4.90;;;;;;;36.41;44.24;100241.64;1703308;83;21153;-61
2021/08/22 05:03:30;;;;;;;5.65;5.00;;;;;;;36.64;41.53;100239.59;1703718;82;20937;-62
2021/08/22 05:05:56;;;;;;;5.30;4.80;;;;;;;36.68;41.32;100245.29;1703957;81;21077;-61
2021/08/22 05:08:23;;;;;;;5.87;5.05;;;;;;;37.04;41.01;100243.80;1707023;83;21022;-61
2021/08/22 05:10:50;;;;;;;6.85;4.90;;;;;;;37.62;40.02;100247.09;1701870;81;21091;-61
2021/08/22 05:13:17;;;;;;;5.47;4.97;;;;;;;37.96;38.76;100243.91;1704344;82;21107;-56
2021/08/22 05:15:45;;;;;;;5.97;4.95;;;;;;;38.33;37.00;100247.25;1707396;82;22664;-59
2021/08/22 05:18:12;;;;;;;5.10;4.60;;;;;;;38.48;36.47;100248.23;1706103;82;21616;-58
2021/08/22 05:20:39;;;;;;;5.97;5.03;;;;;;;38.56;35.67;100253.17;1705526;83;21078;-60
2021/08/22 05:23:05;;;;;;;5.95;4.83;;;;;;;38.77;35.50;100258.85;1707215;82;21020;-59
2021/08/22 05:25:32;;;;;;;5.33;4.83;;;;;;;39.08;34.69;100253.52;1705445;82;21874;-59
2021/08/22 05:27:58;;;;;;;5.03;4.53;;;;;;;39.22;33.97;100258.31;1707571;83;21620;-59
2021/08/22 05:30:26;;;;;;;7.50;4.90;;;;;;;39.10;33.03;100255.88;1704468;82;20944;-57
2021/08/22 05:32:52;;;;;;;5.00;4.42;;;;;;;38.90;32.94;100252.57;1720691;82;21603;-61
2021/08/22 05:35:18;;;;;;;6.83;4.20;;;;;;;38.58;33.14;100260.41;1708870;82;21022;-58
2021/08/22 05:37:45;;;;;;;5.62;4.97;;;;;;;38.47;33.64;100258.14;1705140;83;21214;-59
2021/08/22 05:40:12;;;;;;;7.08;4.42;;;;;;;38.52;33.15;100261.89;1705773;82;21010;-60
2021/08/22 05:42:39;;;;;;;4.95;4.15;;;;;;;38.59;32.68;100260.02;1701995;82;21288;-60
2021/08/22 05:45:07;;;;;;;4.20;3.77;;;;;;;38.42;32.58;100254.59;1707440;83;21079;-60
2021/08/22 05:47:35;;;;;;;4.50;3.75;;;;;;;38.24;31.95;100256.30;1704381;81;21011;-59
2021/08/22 05:50:04;;;;;;;5.08;3.72;;;;;;;38.10;32.33;100260.20;1701750;82;22148;-59
2021/08/22 05:52:35;;;;;;;3.87;2.92;;;;;;;37.87;32.14;100252.09;1706363;83;22216;-59
2021/08/22 05:55:06;;;;;;;3.60;2.70;;;;;;;37.64;32.03;100263.04;1707457;82;21540;-59
2021/08/22 05:57:33;;;;;;;4.08;3.08;;;;;;;37.32;31.02;100263.31;1703143;83;21501;-57
2021/08/22 05:59:59;;;;;;;5.12;2.35;;;;;;;36.83;32.04;100257.20;1705227;82;21126;-58
2021/08/22 06:02:26;;;;;;;5.10;2.90;;;;;;;36.62;32.16;100264.37;1688119;82;21775;-57
2021/08/22 06:04:55;;;;;;;2.95;2.58;;;;;;;36.48;32.55;100263.54;1676269;82;21101;-58
2021/08/22 06:07:23;;;;;;;4.70;2.27;;;;;;;36.45;32.32;100261.50;1675170;82;21621;-58
2021/08/22 06:09:52;;;;;;;2.85;2.08;;;;;;;36.37;32.03;100267.94;1672110;83;21492;-57
2021/08/22 06:12:19;;;;;;;3.47;2.05;;;;;;;36.23;31.60;100272.50;1682743;82;21106;-57
2021/08/22 06:14:47;;;;;;;2.92;2.02;;;;;;;35.88;31.23;100265.71;1678761;82;21452;-57
2021/08/22 06:17:13;;;;;;;4.00;2.47;;;;;;;35.42;31.82;100269.47;1675152;82;20975;-57
2021/08/22 06:19:40;;;;;;;5.58;2.40;;;;;;;35.09;32.64;100276.00;1651507;84;21611;-57
2021/08/22 06:22:06;;;;;;;4.75;2.20;;;;;;;35.05;33.42;100275.13;1651750;84;21099;-59
2021/08/22 06:24:33;;;;;;;4.05;2.52;;;;;;;35.28;32.62;100275.88;1622176;86;22520;-60
2021/08/22 06:27:00;;;;;;;4.87;2.50;;;;;;;35.30;32.79;100272.23;1687603;83;21192;-59
2021/08/22 06:29:27;;;;;;;4.15;2.20;;;;;;;35.47;32.86;100276.54;1670338;83;22316;-60
2021/08/22 06:31:53;;;;;;;3.47;2.02;;;;;;;35.65;32.39;100276.97;1666012;83;21040;-60
2021/08/22 06:34:20;;;;;;;3.17;2.00;;;;;;;35.96;32.14;100278.28;1668594;84;21107;-58
2021/08/22 06:36:48;;;;;;;4.22;2.42;;;;;;;36.21;31.29;100280.77;1669935;84;21296;-59
2021/08/22 06:39:14;;;;;;;4.22;2.17;;;;;;;36.28;30.70;100275.49;1667538;83;21169;-61
2021/08/22 06:41:41;;;;;;;4.10;2.15;;;;;;;36.15;31.05;100279.50;1651500;84;21117;-60
2021/08/22 06:44:08;;;;;;;3.92;2.67;;;;;;;36.00;31.24;100285.96;1649035;84;21071;-58
2021/08/22 06:46:35;;;;;;;6.28;2.40;;;;;;;36.04;31.28;100280.61;1649418;84;21058;-59
2021/08/22 06:49:02;;;;;;;3.95;2.15;;;;;;;36.04;30.94;100285.47;1680452;83;21019;-60
2021/08/22 06:51:30;;;;;;;3.62;2.40;;;;;;;36.01;31.54;100283.45;1678262;83;21064;-60
2021/08/22 06:53:56;;;;;;;3.67;2.10;;;;;;;36.02;30.61;100283.66;1678713;83;21588;-59
2021/08/22 06:56:23;;;;;;;3.95;2.27;;;;;;;35.96;30.74;100276.15;1678782;84;21188;-56
2021/08/22 06:58:51;;;;;;;3.52;1.98;;;;;;;35.87;30.65;100283.10;1674621;85;21194;-61
2021/08/22 07:01:17;;;;;;;3.58;2.22;;;;;;;35.54;30.30;100278.88;1670115;85;20977;-59
2021/08/22 07:03:45;;;;;;;3.08;1.92;;;;;;;35.17;31.98;100281.59;1670474;84;22381;-60
2021/08/22 07:06:11;;;;;;;3.25;2.00;;;;;;;35.14;31.14;100286.36;1675583;85;21550;-57
2021/08/22 07:08:38;;;;;;;5.30;2.27;;;;;;;35.02;30.95;100286.64;1668570;85;21570;-60
2021/08/22 07:11:05;;;;;;;3.15;1.98;;;;;;;34.94;31.90;100282.72;1672219;84;21845;-59
2021/08/22 07:13:33;;;;;;;3.20;2.20;;;;;;;35.07;31.97;100293.16;1675818;85;21099;-60
2021/08/22 07:15:59;;;;;;;3.58;2.10;;;;;;;35.42;31.67;100285.73;1678683;85;21495;-60
2021/08/22 07:18:26;;;;;;;3.02;2.02;;;;;;;35.93;31.47;100277.63;1677158;85;20945;-58
2021/08/22 07:20:53;;;;;;;4.28;2.10;;;;;;;36.37;29.74;100285.59;1676321;84;20968;-60
2021/08/22 07:23:20;;;;;;;3.02;1.95;;;;;;;36.57;29.49;100286.97;1677987;85;21115;-60
2021/08/22 07:25:47;;;;;;;3.22;2.20;;;;;;;36.86;29.37;100287.73;1672811;85;20973;-60
2021/08/22 07:28:13;;;;;;;5.03;2.17;;;;;;;37.13;29.04;100287.27;1678195;85;21182;-61
2021/08/22 07:30:40;;;;;;;3.87;2.30;;;;;;;37.37;28.96;100286.69;1677663;85;21075;-59
2021/08/22 07:33:06;;;;;;;4.47;1.95;;;;;;;37.56;28.66;100291.28;1677652;85;21142;-60
2021/08/22 07:35:33;;;;;;;4.40;2.50;;;;;;;37.64;28.51;100290.23;1678184;85;21541;-60
2021/08/22 07:37:59;;;;;;;4.25;2.12;;;;;;;37.72;28.89;100293.27;1680164;83;21001;-60
2021/08/22 07:40:25;;;;;;;3.52;2.40;;;;;;;37.93;29.10;100289.53;1680739;83;21152;-59
2021/08/22 07:42:52;;;;;;;3.42;2.10;;;;;;;38.26;27.43;100289.95;1677082;84;20906;-59
2021/08/22 07:45:18;;;;;;;3.15;2.10;;;;;;;38.07;27.50;100286.20;1685773;83;21893;-60
2021/08/22 07:47:45;;;;;;;6.20;2.20;;;;;;;37.84;28.26;100293.63;1676471;83;21075;-60
2021/08/22 07:50:11;;;;;;;3.62;2.15;;;;;;;37.84;28.22;100287.61;1687033;83;21110;-60
2021/08/22 07:52:38;;;;;;;4.53;2.52;;;;;;;38.00;28.67;100290.22;1687305;83;21144;-58
2021/08/22 07:55:05;;;;;;;3.98;2.37;;;;;;;38.25;26.91;100287.02;1685875;83;21004;-60
2021/08/22 07:57:32;;;;;;;2.98;2.20;;;;;;;38.11;26.73;100291.70;1672422;84;21652;-60
2021/08/22 07:59:59;;;;;;;3.15;2.12;;;;;;;37.68;27.80;100289.72;1683321;83;20936;-60
2021/08/22 08:02:25;;;;;;;3.37;2.00;;;;;;;37.68;28.19;100294.58;1685697;82;21537;-61
2021/08/22 08:04:52;;;;;;;2.77;2.12;;;;;;;38.01;27.49;100291.78;1706866;82;21165;-58
2021/08/22 08:07:19;;;;;;;4.20;1.72;;;;;;;38.08;26.56;100293.82;1703254;82;21188;-61
2021/08/22 08:09:47;;;;;;;4.25;2.12;;;;;;;37.65;27.53;100299.95;1703808;82;21011;-60
2021/08/22 08:12:14;;;;;;;2.95;1.98;;;;;;;37.69;27.59;100299.44;1710883;82;21529;-59
2021/08/22 08:14:40;;;;;;;3.40;2.37;;;;;;;37.94;28.24;100296.54;1707420;83;21087;-59
2021/08/22 08:17:08;;;;;;;2.95;1.92;;;;;;;38.29;26.54;100298.16;1702918;83;21155;-59
2021/08/22 08:19:35;;;;;;;3.87;2.27;;;;;;;38.44;26.54;100297.20;1711843;82;21075;-60
2021/08/22 08:22:05;;;;;;;2.65;1.95;;;;;;;38.56;26.15;100296.76;1707982;82;21034;-62
2021/08/22 08:24:31;;;;;;;4.28;2.02;;;;;;;38.18;26.21;100302.69;1702781;83;21103;-58
2021/08/22 08:26:57;;;;;;;5.42;1.90;;;;;;;37.76;25.50;100298.19;1702767;82;21022;-57
2021/08/22 08:29:24;;;;;;;3.15;1.65;;;;;;;37.76;25.64;100298.77;1704385;82;21412;-60
2021/08/22 08:31:50;;;;;;;2.62;1.65;;;;;;;37.68;26.67;100296.52;1702725;82;21062;-58
2021/08/22 08:34:16;;;;;;;3.70;1.80;;;;;;;37.88;25.94;100295.86;1700620;82;20941;-58
2021/08/22 08:36:45;;;;;;;2.55;1.45;;;;;;;38.11;26.49;100291.70;1702018;82;20972;-57
2021/08/22 08:39:11;;;;;;;2.25;1.50;;;;;;;38.47;25.86;100292.19;1703440;82;21126;-57
2021/08/22 08:41:37;;;;;;;2.90;1.70;;;;;;;38.39;25.46;100293.47;1702134;82;22726;-58
2021/08/22 08:44:05;;;;;;;3.80;1.87;;;;;;;38.12;25.66;100291.34;1704035;83;21122;-58
2021/08/22 08:46:37;;;;;;;2.45;1.30;;;;;;;38.15;25.07;100285.72;1703654;82;21057;-58
2021/08/22 08:49:24;;;;;;;2.12;1.50;;;;;;;38.18;25.68;100280.91;1704961;82;21146;-57
2021/08/22 08:52:11;;;;;;;2.20;1.60;;;;;;;38.30;25.38;100284.78;1703690;83;20956;-58
2021/08/22 08:54:53;;;;;;;2.47;1.52;;;;;;;38.41;24.84;100289.77;1711207;82;21147;-58
2021/08/22 08:57:20;;;;;;;3.60;1.70;;;;;;;38.23;26.09;100283.33;1702239;82;20956;-58
2021/08/22 08:59:46;;;;;;;2.35;1.45;;;;;;;38.13;25.08;100277.16;1702556;83;21604;-57
2021/08/22 09:02:13;;;;;;;2.90;1.60;;;;;;;37.95;25.38;100279.05;1702444;83;21008;-56
2021/08/22 09:04:57;;;;;;;3.58;1.30;;;;;;;37.95;25.44;100274.19;1669526;83;35645;-58
2021/08/22 09:08:04;;;;;;;2.37;1.50;;;;;;;37.79;25.45;100287.94;1676605;82;21234;-58
2021/08/22 09:11:26;;;;;;;2.58;1.60;;;;;;;37.49;25.29;100280.49;1677561;82;21004;-58
2021/08/22 09:14:51;;;;;;;1.70;1.30;;;;;;;37.44;25.61;100275.95;1676605;82;21023;-57
2021/08/22 09:18:01;;;;;;;2.75;1.87;;;;;;;37.43;25.58;100279.25;1613765;86;21144;-60
2021/08/22 09:21:06;;;;;;;2.30;1.42;;;;;;;37.25;25.85;100280.86;1592123;87;21058;-58
2021/08/22 09:24:23;;;;;;;3.12;1.67;;;;;;;37.20;25.69;100283.31;1676414;82;21143;-60
2021/08/22 09:27:47;;;;;;;2.02;1.42;;;;;;;37.42;25.71;100266.78;1678430;82;20968;-60
2021/08/22 09:31:08;;;;;;;4.62;1.70;;;;;;;37.73;24.89;100275.79;1681186;82;21019;-59
2021/08/22 09:34:11;;;;;;;;;;;;;;;37.65;25.07;100278.20;1665508;85;21212;-60
2021/08/22 09:37:09;;;;;;;4.05;1.72;;;;;;;37.49;25.03;100274.27;1662427;84;20699;-60
2021/08/22 09:40:05;;;;;;;3.20;1.90;;;;;;;37.30;25.39;100271.03;1683909;82;21147;-59
2021/08/22 09:43:19;;;;;;;2.55;1.70;;;;;;;37.15;24.97;100279.52;1657911;82;21054;-59
2021/08/22 09:46:40;;;;;;;3.52;1.70;;;;;;;36.91;24.61;100272.48;1684872;82;21138;-59
2021/08/22 09:49:51;;;;;;;2.35;1.47;;;;;;;37.16;25.55;100275.64;1685777;82;21597;-59
2021/08/22 09:53:15;;;;;;;2.22;1.22;;;;;;;37.36;25.63;100275.02;1679593;82;27177;-60
2021/08/22 09:56:08;;;;;;;3.67;1.42;;;;;;;37.49;25.22;100275.05;1679658;82;22392;-58
2021/08/22 09:59:24;;;;;;;3.50;1.77;;;;;;;37.02;24.98;100275.42;1677519;82;21399;-59
2021/08/22 10:02:31;;;;;;;3.02;1.50;;;;;;;36.67;25.49;100270.08;1679185;82;21177;-59
2021/08/22 10:05:27;;;;;;;4.05;2.40;;;;;;;36.51;25.85;100276.38;1710227;81;21065;-58
2021/08/22 10:08:18;;;;;;;4.28;1.92;;;;;;;36.33;25.87;100286.62;1708110;81;21133;-59
2021/08/22 10:10:54;;;;;;;3.10;1.70;;;;;;;36.15;25.77;100284.34;1661490;83;22531;-58
2021/08/22 10:13:21;;;;;;;4.05;1.77;;;;;;;35.90;25.68;100294.61;1699772;82;21058;-59
2021/08/22 10:15:47;;;;;;;3.25;1.98;;;;;;;35.86;26.13;100296.45;1698973;82;21017;-58
2021/08/22 10:18:26;;;;;;;3.00;2.00;;;;;;;35.95;26.18;100288.12;1702964;82;21082;-58
2021/08/22 10:21:01;;;;;;;1.90;1.50;;;;;;;36.24;25.87;100290.92;1703004;84;20951;-60
2021/08/22 10:23:43;;;;;;;3.40;1.90;;;;;;;36.53;24.81;100287.68;1699906;82;22235;-60
2021/08/22 10:26:12;;;;;;;2.47;1.70;;;;;;;36.60;25.28;100287.61;1702127;82;21086;-59
2021/08/22 10:29:00;;;;;;;2.47;1.50;;;;;;;36.92;25.06;100288.20;1681999;83;21059;-59
2021/08/22 10:31:59;;;;;;;2.30;1.60;;;;;;;37.25;24.60;100289.02;1677855;83;21064;-58
2021/08/22 10:34:26;;;;;;;2.98;1.60;;;;;;;37.45;24.62;100289.17;1695060;82;21023;-59
2021/08/22 10:36:54;;;;;;;2.45;1.60;;;;;;;37.64;23.92;100292.96;1688546;82;21146;-59
2021/08/22 10:39:26;;;;;;;3.15;2.00;;;;;;;37.65;24.43;100287.14;1704371;82;21058;-59
2021/08/22 10:42:01;;;;;;;2.33;1.60;;;;;;;37.77;24.00;100291.59;1703895;82;20952;-58
2021/08/22 10:44:38;;;;;;;2.33;1.50;;;;;;;37.73;23.74;100294.83;1698051;82;20996;-58
2021/08/22 10:47:13;;;;;;;3.17;1.92;;;;;;;37.25;24.62;100287.66;1700552;83;22490;-57
2021/08/22 10:49:56;;;;;;;3.10;1.87;;;;;;;36.98;25.67;100290.88;1698056;82;21168;-58
2021/08/22 10:52:33;;;;;;;7.30;2.65;;;;;;;37.02;24.87;100287.65;1699018;84;21083;-58
2021/08/22 10:55:20;;;;;;;4.33;1.77;;;;;;;36.99;24.93;100286.44;1701576;82;20975;-59
2021/08/22 10:57:51;;;;;;;2.22;1.60;;;;;;;37.13;24.78;100282.41;1698229;82;21396;-59
2021/08/22 11:00:30;;;;;;;;;;;;;;;37.27;24.13;100277.19;1679556;84;20967;-58
2021/08/22 11:03:01;;;;;;;2.62;1.70;;;;;;;37.42;23.70;100276.88;1699963;82;21162;-58
2021/08/22 11:05:29;;;;;;;2.40;1.55;;;;;;;37.47;23.96;100279.31;1649169;85;21136;-58
2021/08/22 11:07:57;;;;;;;3.02;1.77;;;;;;;37.49;24.30;100280.49;1678159;85;20979;-58
2021/08/22 11:10:29;;;;;;;2.33;1.85;;;;;;;37.67;23.81;100274.55;1655440;83;21995;-58
2021/08/22 11:12:56;;;;;;;2.70;1.87;;;;;;;37.54;23.51;100271.81;1671648;84;21500;-56
2021/08/22 11:15:29;;;;;;;3.37;1.98;;;;;;;37.19;24.82;100274.92;1676851;84;21097;-58
2021/08/22 11:17:58;;;;;;;3.27;2.35;;;;;;;37.32;25.01;100285.64;1671484;85;22220;-58
2021/08/22 11:20:29;;;;;;;3.70;2.00;;;;;;;37.34;24.58;100275.17;1683614;83;22077;-59
2021/08/22 11:23:06;;;;;;;2.50;1.42;;;;;;;37.04;24.83;100275.83;1646960;84;21024;-59
2021/08/22 11:25:34;;;;;;;2.85;2.10;;;;;;;36.66;24.85;100273.94;1673827;84;21086;-58
2021/08/22 11:28:09;;;;;;;4.10;2.00;;;;;;;36.22;25.75;100271.50;1677514;85;21161;-58
2021/08/22 11:30:37;;;;;;;3.08;2.00;;;;;;;35.92;25.97;100279.35;1681442;83;20997;-58
2021/08/22 11:33:04;;;;;;;4.30;2.15;;;;;;;35.24;26.89;100279.08;1674173;85;21170;-59
2021/08/22 11:35:30;;;;;;;2.72;1.77;;;;;;;34.67;28.06;100273.48;1672740;84;21007;-59
2021/08/22 11:37:59;;;;;;;3.85;2.10;;;;;;;34.24;28.69;100275.72;1670990;85;20957;-59
2021/08/22 11:40:27;;;;;;;2.90;1.80;;;;;;;33.88;28.82;100272.50;1672135;84;21169;-56